sensor_id;sensor_type;location;lat;lon;timestamp;temperature;humidity
74081;SHT31;62438;52.228;6.864;2022-08-01T00:01:13;18.63;91.63
74081;SHT31;62438;52.228;6.864;2022-08-01T00:03:13;18.63;91.94
74081;SHT31;62438;52.228;6.864;2022-08-01T00:05:14;18.57;91.87
74081;SHT31;62438;52.228;6.864;2022-08-01T00:07:15;18.57;91.40
74081;SHT31;62438;52.228;6.864;2022-08-01T00:09:15;18.57;91.63
74081;SHT31;62438;52.228;6.864;2022-08-01T00:11:16;18.56;91.79
74081;SHT31;62438;52.228;6.864;2022-08-01T00:13:16;18.57;91.78
74081;SHT31;62438;52.228;6.864;2022-08-01T00:15:17;18.53;91.68
74081;SHT31;62438;52.228;6.864;2022-08-01T00:17:18;18.57;91.50
74081;SHT31;62438;52.228;6.864;2022-08-01T00:19:18;18.55;91.67
74081;SHT31;62438;52.228;6.864;2022-08-01T00:21:19;18.56;91.71
74081;SHT31;62438;52.228;6.864;2022-08-01T00:23:19;18.57;91.73
74081;SHT31;62438;52.228;6.864;2022-08-01T00:25:19;18.55;92.08
74081;SHT31;62438;52.228;6.864;2022-08-01T00:27:20;18.53;91.78
74081;SHT31;62438;52.228;6.864;2022-08-01T00:29:20;18.49;92.08
74081;SHT31;62438;52.228;6.864;2022-08-01T00:31:21;18.46;91.97
74081;SHT31;62438;52.228;6.864;2022-08-01T00:33:21;18.50;91.95
74081;SHT31;62438;52.228;6.864;2022-08-01T00:35:22;18.53;91.63
74081;SHT31;62438;52.228;6.864;2022-08-01T00:37:22;18.59;91.79
74081;SHT31;62438;52.228;6.864;2022-08-01T00:39:23;18.49;91.97
74081;SHT31;62438;52.228;6.864;2022-08-01T00:41:23;18.49;91.89
74081;SHT31;62438;52.228;6.864;2022-08-01T00:43:24;18.49;91.80
74081;SHT31;62438;52.228;6.864;2022-08-01T00:45:24;18.48;91.80
74081;SHT31;62438;52.228;6.864;2022-08-01T00:47:25;18.46;91.76
74081;SHT31;62438;52.228;6.864;2022-08-01T00:49:25;18.50;91.74
74081;SHT31;62438;52.228;6.864;2022-08-01T00:51:27;18.48;91.60
74081;SHT31;62438;52.228;6.864;2022-08-01T00:53:27;18.43;91.74
74081;SHT31;62438;52.228;6.864;2022-08-01T00:55:28;18.43;91.35
74081;SHT31;62438;52.228;6.864;2022-08-01T00:57:30;18.39;91.45
74081;SHT31;62438;52.228;6.864;2022-08-01T00:59:31;18.40;91.63
74081;SHT31;62438;52.228;6.864;2022-08-01T01:01:31;18.42;91.23
74081;SHT31;62438;52.228;6.864;2022-08-01T01:03:31;18.43;91.42
74081;SHT31;62438;52.228;6.864;2022-08-01T01:05:38;18.39;91.51
74081;SHT31;62438;52.228;6.864;2022-08-01T01:08:08;18.42;91.15
74081;SHT31;62438;52.228;6.864;2022-08-01T01:17:03;18.42;91.44
74081;SHT31;62438;52.228;6.864;2022-08-01T01:19:10;18.40;91.54
74081;SHT31;62438;52.228;6.864;2022-08-01T01:31:05;18.40;92.35
74081;SHT31;62438;52.228;6.864;2022-08-01T01:33:10;18.40;92.02
74081;SHT31;62438;52.228;6.864;2022-08-01T01:35:18;18.42;92.09
74081;SHT31;62438;52.228;6.864;2022-08-01T01:37:23;18.42;91.95
74081;SHT31;62438;52.228;6.864;2022-08-01T01:39:26;18.40;92.14
74081;SHT31;62438;52.228;6.864;2022-08-01T01:41:30;18.43;91.97
74081;SHT31;62438;52.228;6.864;2022-08-01T01:43:32;18.40;92.53
74081;SHT31;62438;52.228;6.864;2022-08-01T01:45:32;18.42;92.49
74081;SHT31;62438;52.228;6.864;2022-08-01T01:47:34;18.38;92.81
74081;SHT31;62438;52.228;6.864;2022-08-01T01:49:35;18.35;92.88
74081;SHT31;62438;52.228;6.864;2022-08-01T01:51:38;18.35;92.61
74081;SHT31;62438;52.228;6.864;2022-08-01T01:53:40;18.28;93.05
74081;SHT31;62438;52.228;6.864;2022-08-01T01:55:43;18.18;93.41
74081;SHT31;62438;52.228;6.864;2022-08-01T01:57:44;18.16;93.96
74081;SHT31;62438;52.228;6.864;2022-08-01T01:59:46;18.19;93.77
74081;SHT31;62438;52.228;6.864;2022-08-01T02:01:49;18.12;94.26
74081;SHT31;62438;52.228;6.864;2022-08-01T02:03:52;18.08;94.43
74081;SHT31;62438;52.228;6.864;2022-08-01T02:05:54;18.08;94.42
74081;SHT31;62438;52.228;6.864;2022-08-01T02:07:55;18.02;94.76
74081;SHT31;62438;52.228;6.864;2022-08-01T02:09:57;18.04;94.88
74081;SHT31;62438;52.228;6.864;2022-08-01T02:12:01;17.97;94.86
74081;SHT31;62438;52.228;6.864;2022-08-01T02:14:03;17.98;94.92
74081;SHT31;62438;52.228;6.864;2022-08-01T02:16:04;17.98;95.04
74081;SHT31;62438;52.228;6.864;2022-08-01T02:18:05;17.97;95.26
74081;SHT31;62438;52.228;6.864;2022-08-01T02:20:07;17.97;95.37
74081;SHT31;62438;52.228;6.864;2022-08-01T02:22:21;17.97;95.45
74081;SHT31;62438;52.228;6.864;2022-08-01T02:24:36;17.92;95.59
74081;SHT31;62438;52.228;6.864;2022-08-01T02:26:39;17.97;95.57
74081;SHT31;62438;52.228;6.864;2022-08-01T02:28:47;17.94;95.59
74081;SHT31;62438;52.228;6.864;2022-08-01T02:30:48;17.95;94.96
74081;SHT31;62438;52.228;6.864;2022-08-01T02:32:56;17.98;95.39
74081;SHT31;62438;52.228;6.864;2022-08-01T02:35:00;17.95;95.25
74081;SHT31;62438;52.228;6.864;2022-08-01T02:37:03;17.98;95.32
74081;SHT31;62438;52.228;6.864;2022-08-01T02:39:09;17.97;95.33
74081;SHT31;62438;52.228;6.864;2022-08-01T02:41:12;17.95;95.20
74081;SHT31;62438;52.228;6.864;2022-08-01T02:43:15;17.94;95.31
74081;SHT31;62438;52.228;6.864;2022-08-01T02:45:20;17.95;94.98
74081;SHT31;62438;52.228;6.864;2022-08-01T02:47:23;17.92;95.39
74081;SHT31;62438;52.228;6.864;2022-08-01T02:49:25;17.92;95.28
74081;SHT31;62438;52.228;6.864;2022-08-01T02:51:28;17.95;95.22
74081;SHT31;62438;52.228;6.864;2022-08-01T02:53:32;17.90;95.45
74081;SHT31;62438;52.228;6.864;2022-08-01T02:55:38;17.90;95.30
74081;SHT31;62438;52.228;6.864;2022-08-01T02:57:40;17.87;95.53
74081;SHT31;62438;52.228;6.864;2022-08-01T02:59:42;17.88;95.55
74081;SHT31;62438;52.228;6.864;2022-08-01T03:01:44;17.87;95.52
74081;SHT31;62438;52.228;6.864;2022-08-01T03:03:45;17.92;95.17
74081;SHT31;62438;52.228;6.864;2022-08-01T03:05:47;17.91;95.25
74081;SHT31;62438;52.228;6.864;2022-08-01T03:07:50;17.91;95.26
74081;SHT31;62438;52.228;6.864;2022-08-01T03:09:52;17.87;95.45
74081;SHT31;62438;52.228;6.864;2022-08-01T03:11:57;17.88;95.49
74081;SHT31;62438;52.228;6.864;2022-08-01T03:14:02;17.90;95.57
74081;SHT31;62438;52.228;6.864;2022-08-01T03:16:06;17.90;95.36
74081;SHT31;62438;52.228;6.864;2022-08-01T03:18:09;17.94;94.97
74081;SHT31;62438;52.228;6.864;2022-08-01T03:20:13;17.91;95.09
74081;SHT31;62438;52.228;6.864;2022-08-01T03:22:15;17.90;95.18
74081;SHT31;62438;52.228;6.864;2022-08-01T03:24:18;17.88;95.16
74081;SHT31;62438;52.228;6.864;2022-08-01T03:26:19;17.92;95.16
74081;SHT31;62438;52.228;6.864;2022-08-01T03:28:21;17.88;95.28
74081;SHT31;62438;52.228;6.864;2022-08-01T03:30:22;17.88;95.22
74081;SHT31;62438;52.228;6.864;2022-08-01T03:32:25;17.88;95.17
74081;SHT31;62438;52.228;6.864;2022-08-01T03:34:28;17.85;95.48
74081;SHT31;62438;52.228;6.864;2022-08-01T03:36:30;17.85;95.37
74081;SHT31;62438;52.228;6.864;2022-08-01T03:38:34;17.91;95.31
74081;SHT31;62438;52.228;6.864;2022-08-01T03:40:45;17.91;95.12
74081;SHT31;62438;52.228;6.864;2022-08-01T03:42:53;17.88;95.11
74081;SHT31;62438;52.228;6.864;2022-08-01T03:45:04;17.87;95.23
74081;SHT31;62438;52.228;6.864;2022-08-01T03:47:07;17.84;95.42
74081;SHT31;62438;52.228;6.864;2022-08-01T03:49:17;17.91;95.10
74081;SHT31;62438;52.228;6.864;2022-08-01T03:51:18;17.87;95.46
74081;SHT31;62438;52.228;6.864;2022-08-01T03:53:25;17.87;95.47
74081;SHT31;62438;52.228;6.864;2022-08-01T03:55:26;17.95;95.03
74081;SHT31;62438;52.228;6.864;2022-08-01T03:57:28;17.88;95.16
74081;SHT31;62438;52.228;6.864;2022-08-01T03:59:29;17.87;95.41
74081;SHT31;62438;52.228;6.864;2022-08-01T04:01:31;17.87;95.29
74081;SHT31;62438;52.228;6.864;2022-08-01T04:03:32;17.87;95.31
74081;SHT31;62438;52.228;6.864;2022-08-01T04:05:33;17.91;95.34
74081;SHT31;62438;52.228;6.864;2022-08-01T04:07:34;17.85;95.53
74081;SHT31;62438;52.228;6.864;2022-08-01T04:09:36;17.92;95.59
74081;SHT31;62438;52.228;6.864;2022-08-01T04:11:36;17.88;95.23
74081;SHT31;62438;52.228;6.864;2022-08-01T04:13:37;17.91;95.23
74081;SHT31;62438;52.228;6.864;2022-08-01T04:15:37;17.90;95.40
74081;SHT31;62438;52.228;6.864;2022-08-01T04:17:37;17.90;95.29
74081;SHT31;62438;52.228;6.864;2022-08-01T04:19:38;17.88;95.39
74081;SHT31;62438;52.228;6.864;2022-08-01T04:21:38;17.91;95.64
74081;SHT31;62438;52.228;6.864;2022-08-01T04:23:41;17.91;95.21
74081;SHT31;62438;52.228;6.864;2022-08-01T04:25:44;17.92;95.37
74081;SHT31;62438;52.228;6.864;2022-08-01T04:27:47;17.97;95.15
74081;SHT31;62438;52.228;6.864;2022-08-01T04:29:49;17.92;95.18
74081;SHT31;62438;52.228;6.864;2022-08-01T04:31:53;17.88;95.37
74081;SHT31;62438;52.228;6.864;2022-08-01T04:33:55;17.94;95.28
74081;SHT31;62438;52.228;6.864;2022-08-01T04:35:58;17.94;95.46
74081;SHT31;62438;52.228;6.864;2022-08-01T04:38:01;17.95;95.12
74081;SHT31;62438;52.228;6.864;2022-08-01T04:40:03;17.94;95.07
74081;SHT31;62438;52.228;6.864;2022-08-01T04:42:06;17.95;95.27
74081;SHT31;62438;52.228;6.864;2022-08-01T04:44:07;17.97;95.30
74081;SHT31;62438;52.228;6.864;2022-08-01T04:46:08;17.97;95.19
74081;SHT31;62438;52.228;6.864;2022-08-01T04:48:09;18.01;94.99
74081;SHT31;62438;52.228;6.864;2022-08-01T04:50:11;17.97;95.16
74081;SHT31;62438;52.228;6.864;2022-08-01T04:52:12;17.98;95.12
74081;SHT31;62438;52.228;6.864;2022-08-01T04:54:12;18.01;95.11
74081;SHT31;62438;52.228;6.864;2022-08-01T04:56:13;18.01;95.27
74081;SHT31;62438;52.228;6.864;2022-08-01T04:58:15;18.02;95.10
74081;SHT31;62438;52.228;6.864;2022-08-01T05:00:15;18.02;95.15
74081;SHT31;62438;52.228;6.864;2022-08-01T05:02:19;18.02;95.29
74081;SHT31;62438;52.228;6.864;2022-08-01T05:04:19;18.05;95.15
74081;SHT31;62438;52.228;6.864;2022-08-01T05:06:19;18.04;95.43
74081;SHT31;62438;52.228;6.864;2022-08-01T05:08:20;18.06;94.98
74081;SHT31;62438;52.228;6.864;2022-08-01T05:10:20;18.04;94.81
74081;SHT31;62438;52.228;6.864;2022-08-01T05:12:21;18.06;94.68
74081;SHT31;62438;52.228;6.864;2022-08-01T05:14:21;18.11;94.90
74081;SHT31;62438;52.228;6.864;2022-08-01T05:16:21;18.02;94.78
74081;SHT31;62438;52.228;6.864;2022-08-01T05:18:22;18.08;94.62
74081;SHT31;62438;52.228;6.864;2022-08-01T05:20:22;18.05;95.04
74081;SHT31;62438;52.228;6.864;2022-08-01T05:22:23;17.99;95.14
74081;SHT31;62438;52.228;6.864;2022-08-01T05:24:25;17.99;95.41
74081;SHT31;62438;52.228;6.864;2022-08-01T05:26:26;17.94;95.34
74081;SHT31;62438;52.228;6.864;2022-08-01T05:28:26;18.04;95.01
74081;SHT31;62438;52.228;6.864;2022-08-01T05:30:26;17.98;94.83
74081;SHT31;62438;52.228;6.864;2022-08-01T05:32:27;17.97;94.83
74081;SHT31;62438;52.228;6.864;2022-08-01T05:34:29;17.99;94.87
74081;SHT31;62438;52.228;6.864;2022-08-01T05:36:29;17.94;94.65
74081;SHT31;62438;52.228;6.864;2022-08-01T05:38:30;17.97;94.98
74081;SHT31;62438;52.228;6.864;2022-08-01T05:40:30;17.94;94.23
74081;SHT31;62438;52.228;6.864;2022-08-01T05:42:31;18.08;94.42
74081;SHT31;62438;52.228;6.864;2022-08-01T05:44:31;18.08;93.99
74081;SHT31;62438;52.228;6.864;2022-08-01T05:46:32;17.99;94.28
74081;SHT31;62438;52.228;6.864;2022-08-01T05:48:33;18.08;94.09
74081;SHT31;62438;52.228;6.864;2022-08-01T05:50:34;17.99;93.51
74081;SHT31;62438;52.228;6.864;2022-08-01T05:52:34;17.97;93.21
74081;SHT31;62438;52.228;6.864;2022-08-01T05:54:35;17.82;92.71
74081;SHT31;62438;52.228;6.864;2022-08-01T05:56:36;17.80;92.81
74081;SHT31;62438;52.228;6.864;2022-08-01T05:58:36;17.87;93.61
74081;SHT31;62438;52.228;6.864;2022-08-01T06:00:37;17.88;93.10
74081;SHT31;62438;52.228;6.864;2022-08-01T06:02:41;17.85;92.68
74081;SHT31;62438;52.228;6.864;2022-08-01T06:04:42;17.88;93.81
74081;SHT31;62438;52.228;6.864;2022-08-01T06:06:43;17.78;92.95
74081;SHT31;62438;52.228;6.864;2022-08-01T06:08:43;17.84;93.75
74081;SHT31;62438;52.228;6.864;2022-08-01T06:10:43;17.87;93.51
74081;SHT31;62438;52.228;6.864;2022-08-01T06:12:44;17.81;94.19
74081;SHT31;62438;52.228;6.864;2022-08-01T06:14:44;17.82;94.33
74081;SHT31;62438;52.228;6.864;2022-08-01T06:16:44;17.85;94.21
74081;SHT31;62438;52.228;6.864;2022-08-01T06:18:45;17.85;94.51
74081;SHT31;62438;52.228;6.864;2022-08-01T06:20:45;17.82;93.87
74081;SHT31;62438;52.228;6.864;2022-08-01T06:22:46;17.91;94.16
74081;SHT31;62438;52.228;6.864;2022-08-01T06:24:46;17.84;93.64
74081;SHT31;62438;52.228;6.864;2022-08-01T06:26:47;17.77;93.24
74081;SHT31;62438;52.228;6.864;2022-08-01T06:28:47;17.84;94.22
74081;SHT31;62438;52.228;6.864;2022-08-01T06:30:47;17.78;93.70
74081;SHT31;62438;52.228;6.864;2022-08-01T06:32:48;17.81;94.24
74081;SHT31;62438;52.228;6.864;2022-08-01T06:34:48;17.74;93.37
74081;SHT31;62438;52.228;6.864;2022-08-01T06:36:49;17.74;92.84
74081;SHT31;62438;52.228;6.864;2022-08-01T06:38:49;17.78;93.37
74081;SHT31;62438;52.228;6.864;2022-08-01T06:40:50;17.64;92.58
74081;SHT31;62438;52.228;6.864;2022-08-01T06:42:50;17.71;93.34
74081;SHT31;62438;52.228;6.864;2022-08-01T06:44:50;17.77;93.79
74081;SHT31;62438;52.228;6.864;2022-08-01T06:46:51;17.60;92.82
74081;SHT31;62438;52.228;6.864;2022-08-01T06:48:51;17.84;93.69
74081;SHT31;62438;52.228;6.864;2022-08-01T06:50:51;17.78;92.44
74081;SHT31;62438;52.228;6.864;2022-08-01T06:53:07;17.70;93.21
74081;SHT31;62438;52.228;6.864;2022-08-01T06:55:08;17.73;93.80
74081;SHT31;62438;52.228;6.864;2022-08-01T06:57:09;17.80;93.36
74081;SHT31;62438;52.228;6.864;2022-08-01T06:59:09;17.78;94.00
74081;SHT31;62438;52.228;6.864;2022-08-01T07:01:10;17.77;93.34
74081;SHT31;62438;52.228;6.864;2022-08-01T07:03:11;17.74;94.14
74081;SHT31;62438;52.228;6.864;2022-08-01T07:05:11;17.73;94.28
74081;SHT31;62438;52.228;6.864;2022-08-01T07:07:12;17.90;94.06
74081;SHT31;62438;52.228;6.864;2022-08-01T07:09:12;17.92;93.98
74081;SHT31;62438;52.228;6.864;2022-08-01T07:11:13;17.98;94.39
74081;SHT31;62438;52.228;6.864;2022-08-01T07:13:13;18.06;93.85
74081;SHT31;62438;52.228;6.864;2022-08-01T07:15:18;18.18;93.44
74081;SHT31;62438;52.228;6.864;2022-08-01T07:17:20;18.22;93.64
74081;SHT31;62438;52.228;6.864;2022-08-01T07:19:21;18.12;92.01
74081;SHT31;62438;52.228;6.864;2022-08-01T07:21:21;18.21;93.39
74081;SHT31;62438;52.228;6.864;2022-08-01T07:23:22;18.26;92.92
74081;SHT31;62438;52.228;6.864;2022-08-01T07:25:22;18.36;93.69
74081;SHT31;62438;52.228;6.864;2022-08-01T07:27:22;18.48;93.18
74081;SHT31;62438;52.228;6.864;2022-08-01T07:29:24;18.38;91.88
74081;SHT31;62438;52.228;6.864;2022-08-01T07:31:25;18.39;93.14
74081;SHT31;62438;52.228;6.864;2022-08-01T07:33:26;18.36;92.90
74081;SHT31;62438;52.228;6.864;2022-08-01T07:35:26;18.28;92.26
74081;SHT31;62438;52.228;6.864;2022-08-01T07:37:27;18.45;92.48
74081;SHT31;62438;52.228;6.864;2022-08-01T07:39:27;18.56;92.55
74081;SHT31;62438;52.228;6.864;2022-08-01T07:41:28;18.64;91.46
74081;SHT31;62438;52.228;6.864;2022-08-01T07:43:28;18.66;91.13
74081;SHT31;62438;52.228;6.864;2022-08-01T07:45:30;18.71;92.66
74081;SHT31;62438;52.228;6.864;2022-08-01T07:47:30;18.86;91.49
74081;SHT31;62438;52.228;6.864;2022-08-01T07:49:31;18.96;92.04
74081;SHT31;62438;52.228;6.864;2022-08-01T07:51:31;18.90;91.49
74081;SHT31;62438;52.228;6.864;2022-08-01T07:53:32;18.87;90.04
74081;SHT31;62438;52.228;6.864;2022-08-01T07:55:32;18.88;91.22
74081;SHT31;62438;52.228;6.864;2022-08-01T07:57:33;18.90;91.60
74081;SHT31;62438;52.228;6.864;2022-08-01T07:59:33;18.88;90.67
74081;SHT31;62438;52.228;6.864;2022-08-01T08:01:34;18.76;91.17
74081;SHT31;62438;52.228;6.864;2022-08-01T08:03:34;18.78;92.05
74081;SHT31;62438;52.228;6.864;2022-08-01T08:05:35;18.73;92.27
74081;SHT31;62438;52.228;6.864;2022-08-01T08:07:36;18.56;91.50
74081;SHT31;62438;52.228;6.864;2022-08-01T08:09:36;18.46;90.60
74081;SHT31;62438;52.228;6.864;2022-08-01T08:11:37;18.40;91.91
74081;SHT31;62438;52.228;6.864;2022-08-01T08:13:37;18.32;90.03
74081;SHT31;62438;52.228;6.864;2022-08-01T08:15:38;18.22;90.95
74081;SHT31;62438;52.228;6.864;2022-08-01T08:17:39;18.46;92.34
74081;SHT31;62438;52.228;6.864;2022-08-01T08:19:39;18.66;90.82
74081;SHT31;62438;52.228;6.864;2022-08-01T08:21:40;18.76;91.22
74081;SHT31;62438;52.228;6.864;2022-08-01T08:23:40;18.70;90.53
74081;SHT31;62438;52.228;6.864;2022-08-01T08:26:00;18.70;90.18
74081;SHT31;62438;52.228;6.864;2022-08-01T08:28:00;18.67;90.33
74081;SHT31;62438;52.228;6.864;2022-08-01T08:30:03;18.70;90.57
74081;SHT31;62438;52.228;6.864;2022-08-01T08:32:07;18.67;91.52
74081;SHT31;62438;52.228;6.864;2022-08-01T08:34:08;18.53;89.64
74081;SHT31;62438;52.228;6.864;2022-08-01T08:36:08;18.43;92.01
74081;SHT31;62438;52.228;6.864;2022-08-01T08:38:09;18.36;91.72
74081;SHT31;62438;52.228;6.864;2022-08-01T08:40:10;18.24;91.96
74081;SHT31;62438;52.228;6.864;2022-08-01T08:42:11;18.11;91.66
74081;SHT31;62438;52.228;6.864;2022-08-01T08:44:11;17.98;91.99
74081;SHT31;62438;52.228;6.864;2022-08-01T08:46:13;17.92;92.87
74081;SHT31;62438;52.228;6.864;2022-08-01T08:48:14;17.91;92.36
74081;SHT31;62438;52.228;6.864;2022-08-01T08:50:16;17.87;92.04
74081;SHT31;62438;52.228;6.864;2022-08-01T08:52:21;17.78;92.44
74081;SHT31;62438;52.228;6.864;2022-08-01T08:54:23;17.82;91.61
74081;SHT31;62438;52.228;6.864;2022-08-01T08:56:24;17.85;90.92
74081;SHT31;62438;52.228;6.864;2022-08-01T08:58:26;17.88;92.04
74081;SHT31;62438;52.228;6.864;2022-08-01T09:00:26;18.02;91.79
74081;SHT31;62438;52.228;6.864;2022-08-01T09:02:27;18.15;91.07
74081;SHT31;62438;52.228;6.864;2022-08-01T09:04:27;18.32;91.02
74081;SHT31;62438;52.228;6.864;2022-08-01T09:06:28;18.45;91.18
74081;SHT31;62438;52.228;6.864;2022-08-01T09:08:30;18.70;91.39
74081;SHT31;62438;52.228;6.864;2022-08-01T09:10:31;18.81;91.43
74081;SHT31;62438;52.228;6.864;2022-08-01T09:12:31;18.77;89.78
74081;SHT31;62438;52.228;6.864;2022-08-01T09:14:31;18.57;87.87
74081;SHT31;62438;52.228;6.864;2022-08-01T09:16:33;18.59;89.52
74081;SHT31;62438;52.228;6.864;2022-08-01T09:18:38;18.50;89.70
74081;SHT31;62438;52.228;6.864;2022-08-01T09:20:40;18.77;90.71
74081;SHT31;62438;52.228;6.864;2022-08-01T09:22:41;19.01;89.77
74081;SHT31;62438;52.228;6.864;2022-08-01T09:24:41;19.15;87.31
74081;SHT31;62438;52.228;6.864;2022-08-01T09:26:42;19.54;86.74
74081;SHT31;62438;52.228;6.864;2022-08-01T09:28:46;19.80;86.93
74081;SHT31;62438;52.228;6.864;2022-08-01T09:30:47;20.10;84.70
74081;SHT31;62438;52.228;6.864;2022-08-01T09:33:03;20.34;84.30
74081;SHT31;62438;52.228;6.864;2022-08-01T09:35:35;20.35;82.68
74081;SHT31;62438;52.228;6.864;2022-08-01T09:37:37;20.27;82.37
74081;SHT31;62438;52.228;6.864;2022-08-01T09:39:38;20.10;83.51
74081;SHT31;62438;52.228;6.864;2022-08-01T09:41:40;19.89;84.54
74081;SHT31;62438;52.228;6.864;2022-08-01T09:43:47;19.56;83.47
74081;SHT31;62438;52.228;6.864;2022-08-01T09:45:49;19.66;85.71
74081;SHT31;62438;52.228;6.864;2022-08-01T09:47:49;19.51;82.69
74081;SHT31;62438;52.228;6.864;2022-08-01T09:49:56;19.67;85.02
74081;SHT31;62438;52.228;6.864;2022-08-01T09:51:58;19.59;83.34
74081;SHT31;62438;52.228;6.864;2022-08-01T09:53:59;19.63;81.40
74081;SHT31;62438;52.228;6.864;2022-08-01T09:56:10;19.73;82.35
74081;SHT31;62438;52.228;6.864;2022-08-01T09:58:11;19.72;82.89
74081;SHT31;62438;52.228;6.864;2022-08-01T10:00:17;19.65;81.07
74081;SHT31;62438;52.228;6.864;2022-08-01T10:02:31;19.59;80.21
74081;SHT31;62438;52.228;6.864;2022-08-01T10:04:32;19.42;80.04
74081;SHT31;62438;52.228;6.864;2022-08-01T10:06:33;19.70;80.44
74081;SHT31;62438;52.228;6.864;2022-08-01T10:08:45;19.92;82.83
74081;SHT31;62438;52.228;6.864;2022-08-01T10:11:07;20.38;81.65
74081;SHT31;62438;52.228;6.864;2022-08-01T10:13:08;20.68;78.74
74081;SHT31;62438;52.228;6.864;2022-08-01T10:15:10;20.64;77.36
74081;SHT31;62438;52.228;6.864;2022-08-01T10:17:13;20.43;77.22
74081;SHT31;62438;52.228;6.864;2022-08-01T10:19:13;20.51;79.44
74081;SHT31;62438;52.228;6.864;2022-08-01T10:21:14;20.47;77.17
74081;SHT31;62438;52.228;6.864;2022-08-01T10:23:15;20.49;76.53
74081;SHT31;62438;52.228;6.864;2022-08-01T10:25:17;20.49;78.83
74081;SHT31;62438;52.228;6.864;2022-08-01T10:27:19;20.61;78.61
74081;SHT31;62438;52.228;6.864;2022-08-01T10:29:22;20.91;74.88
74081;SHT31;62438;52.228;6.864;2022-08-01T10:31:23;21.23;74.85
74081;SHT31;62438;52.228;6.864;2022-08-01T10:33:24;21.40;71.23
74081;SHT31;62438;52.228;6.864;2022-08-01T10:35:25;21.57;69.93
74081;SHT31;62438;52.228;6.864;2022-08-01T10:37:27;21.68;70.24
74081;SHT31;62438;52.228;6.864;2022-08-01T10:39:27;21.84;68.21
74081;SHT31;62438;52.228;6.864;2022-08-01T10:41:30;22.19;69.07
74081;SHT31;62438;52.228;6.864;2022-08-01T10:43:31;22.19;66.63
74081;SHT31;62438;52.228;6.864;2022-08-01T10:45:32;22.01;64.64
74081;SHT31;62438;52.228;6.864;2022-08-01T10:50:46;21.67;64.43
74081;SHT31;62438;52.228;6.864;2022-08-01T10:55:15;22.01;69.65
74081;SHT31;62438;52.228;6.864;2022-08-01T10:57:16;22.16;67.25
74081;SHT31;62438;52.228;6.864;2022-08-01T11:01:25;21.92;66.98
74081;SHT31;62438;52.228;6.864;2022-08-01T11:03:34;21.98;66.68
74081;SHT31;62438;52.228;6.864;2022-08-01T11:05:35;21.88;69.69
74081;SHT31;62438;52.228;6.864;2022-08-01T11:07:43;21.89;68.20
74081;SHT31;62438;52.228;6.864;2022-08-01T11:09:47;22.12;64.67
74081;SHT31;62438;52.228;6.864;2022-08-01T11:14:05;21.84;70.84
74081;SHT31;62438;52.228;6.864;2022-08-01T11:16:28;21.65;68.06
74081;SHT31;62438;52.228;6.864;2022-08-01T11:18:30;22.19;64.28
74081;SHT31;62438;52.228;6.864;2022-08-01T11:20:35;22.87;65.87
74081;SHT31;62438;52.228;6.864;2022-08-01T11:23:15;22.90;65.17
74081;SHT31;62438;52.228;6.864;2022-08-01T11:25:15;23.31;59.74
74081;SHT31;62438;52.228;6.864;2022-08-01T11:27:28;23.35;59.41
74081;SHT31;62438;52.228;6.864;2022-08-01T11:29:29;22.88;59.08
74081;SHT31;62438;52.228;6.864;2022-08-01T11:31:31;22.74;61.05
74081;SHT31;62438;52.228;6.864;2022-08-01T11:38:25;23.01;63.39
74081;SHT31;62438;52.228;6.864;2022-08-01T11:40:30;22.46;64.07
74081;SHT31;62438;52.228;6.864;2022-08-01T11:42:31;22.22;65.37
74081;SHT31;62438;52.228;6.864;2022-08-01T11:44:48;22.04;62.35
74081;SHT31;62438;52.228;6.864;2022-08-01T11:47:06;22.04;66.13
74081;SHT31;62438;52.228;6.864;2022-08-01T11:51:24;22.22;62.55
74081;SHT31;62438;52.228;6.864;2022-08-01T11:53:25;22.13;66.88
74081;SHT31;62438;52.228;6.864;2022-08-01T11:55:27;21.81;63.63
74081;SHT31;62438;52.228;6.864;2022-08-01T11:57:31;22.12;61.84
74081;SHT31;62438;52.228;6.864;2022-08-01T11:59:37;23.12;62.11
74081;SHT31;62438;52.228;6.864;2022-08-01T12:01:38;22.96;60.44
74081;SHT31;62438;52.228;6.864;2022-08-01T12:03:38;23.25;54.60
74081;SHT31;62438;52.228;6.864;2022-08-01T12:05:43;22.87;59.94
74081;SHT31;62438;52.228;6.864;2022-08-01T12:07:45;22.66;59.59
74081;SHT31;62438;52.228;6.864;2022-08-01T12:10:00;23.37;59.32
74081;SHT31;62438;52.228;6.864;2022-08-01T12:12:01;23.38;55.99
74081;SHT31;62438;52.228;6.864;2022-08-01T12:14:01;23.66;60.15
74081;SHT31;62438;52.228;6.864;2022-08-01T12:16:07;23.31;58.63
74081;SHT31;62438;52.228;6.864;2022-08-01T12:18:08;23.19;59.23
74081;SHT31;62438;52.228;6.864;2022-08-01T12:20:15;22.53;58.76
74081;SHT31;62438;52.228;6.864;2022-08-01T12:22:16;22.56;59.77
74081;SHT31;62438;52.228;6.864;2022-08-01T12:24:21;22.08;58.99
74081;SHT31;62438;52.228;6.864;2022-08-01T12:26:22;22.23;60.52
74081;SHT31;62438;52.228;6.864;2022-08-01T12:28:22;22.78;60.45
74081;SHT31;62438;52.228;6.864;2022-08-01T12:30:23;22.35;59.45
74081;SHT31;62438;52.228;6.864;2022-08-01T12:32:27;22.20;60.92
74081;SHT31;62438;52.228;6.864;2022-08-01T12:34:28;22.50;60.03
74081;SHT31;62438;52.228;6.864;2022-08-01T12:36:29;22.23;58.84
74081;SHT31;62438;52.228;6.864;2022-08-01T12:38:30;22.19;59.12
74081;SHT31;62438;52.228;6.864;2022-08-01T12:40:33;22.35;61.55
74081;SHT31;62438;52.228;6.864;2022-08-01T12:42:37;22.09;56.40
74081;SHT31;62438;52.228;6.864;2022-08-01T12:44:39;22.29;61.32
74081;SHT31;62438;52.228;6.864;2022-08-01T12:46:40;22.46;61.55
74081;SHT31;62438;52.228;6.864;2022-08-01T12:48:41;22.87;61.27
74081;SHT31;62438;52.228;6.864;2022-08-01T12:50:44;22.60;58.49
74081;SHT31;62438;52.228;6.864;2022-08-01T12:52:46;23.07;60.28
74081;SHT31;62438;52.228;6.864;2022-08-01T12:57:03;23.03;59.10
74081;SHT31;62438;52.228;6.864;2022-08-01T12:59:23;22.97;60.60
74081;SHT31;62438;52.228;6.864;2022-08-01T13:01:26;22.78;58.75
74081;SHT31;62438;52.228;6.864;2022-08-01T13:03:27;22.43;58.43
74081;SHT31;62438;52.228;6.864;2022-08-01T13:05:27;22.43;60.73
74081;SHT31;62438;52.228;6.864;2022-08-01T13:07:37;23.17;60.98
74081;SHT31;62438;52.228;6.864;2022-08-01T13:09:49;23.07;58.82
74081;SHT31;62438;52.228;6.864;2022-08-01T13:11:49;23.03;58.21
74081;SHT31;62438;52.228;6.864;2022-08-01T13:13:52;22.96;58.44
74081;SHT31;62438;52.228;6.864;2022-08-01T13:16:03;22.81;59.95
74081;SHT31;62438;52.228;6.864;2022-08-01T13:18:47;23.48;56.85
74081;SHT31;62438;52.228;6.864;2022-08-01T13:20:49;23.86;53.55
74081;SHT31;62438;52.228;6.864;2022-08-01T13:22:50;23.49;55.96
74081;SHT31;62438;52.228;6.864;2022-08-01T13:24:51;23.35;58.04
74081;SHT31;62438;52.228;6.864;2022-08-01T13:26:57;23.28;58.61
74081;SHT31;62438;52.228;6.864;2022-08-01T13:29:04;23.46;57.33
74081;SHT31;62438;52.228;6.864;2022-08-01T13:31:08;23.55;55.89